Time;durP1;ratioP1;P1;durP2;ratioP2;P2;SDS_P1;SDS_P2;PMS_P1;PMS_P2;Temp;Humidity;BMP_temperature;BMP_pressure;BME280_temperature;BME280_humidity;BME280_pressure;Samples;Min_cycle;Max_cycle;Signal;HPM_P1;HPM_P2
2022/07/13 00:02:09;;;;;;;10.98;7.63;;;;;;;18.27;100.00;100394.00;10427764;28;20041;-76
2022/07/13 00:07:11;;;;;;;9.38;6.18;;;;;;;18.23;100.00;100404.97;10457005;28;20392;-76
2022/07/13 00:12:14;;;;;;;7.72;5.50;;;;;;;18.21;100.00;100404.47;10484937;28;20120;-75
2022/07/13 00:17:16;;;;;;;8.57;5.30;;;;;;;18.16;100.00;100413.00;10473156;28;20434;-76
2022/07/13 00:22:19;;;;;;;7.80;4.65;;;;;;;18.11;100.00;100416.00;10479907;28;20052;-75
2022/07/13 00:27:21;;;;;;;6.63;4.25;;;;;;;18.06;100.00;100413.44;10484485;28;20044;-75
2022/07/13 00:32:23;;;;;;;6.15;4.47;;;;;;;18.01;100.00;100417.19;10481654;28;20056;-74
2022/07/13 00:37:26;;;;;;;6.47;4.25;;;;;;;17.97;99.63;100412.66;10484061;28;20041;-74
2022/07/13 00:42:29;;;;;;;6.45;4.60;;;;;;;17.94;99.11;100411.38;10482683;28;20040;-74
2022/07/13 00:47:32;;;;;;;5.78;3.85;;;;;;;17.91;98.65;100419.56;10416803;28;1979172;-74
2022/07/13 00:52:36;;;;;;;5.90;3.28;;;;;;;17.89;98.25;100427.41;10461252;28;20040;-75
2022/07/13 00:57:41;;;;;;;5.20;3.13;;;;;;;17.85;98.41;100434.75;10485006;28;20492;-75
2022/07/13 01:02:46;;;;;;;4.63;3.15;;;;;;;17.81;98.06;100436.59;10483700;28;20152;-75
2022/07/13 01:07:48;;;;;;;4.43;3.45;;;;;;;17.78;97.69;100432.53;10467979;28;20045;-75
2022/07/13 01:12:52;;;;;;;4.40;3.25;;;;;;;17.74;97.82;100440.72;10434391;28;20064;-75
2022/07/13 01:17:56;;;;;;;4.85;3.20;;;;;;;17.71;97.35;100433.06;10482647;28;20091;-75
2022/07/13 01:23:05;;;;;;;5.93;3.22;;;;;;;17.68;97.84;100444.00;10465262;28;20041;-75
2022/07/13 01:28:08;;;;;;;3.92;2.58;;;;;;;17.65;98.27;100437.13;10465224;28;20515;-75
2022/07/13 01:33:10;;;;;;;4.15;2.78;;;;;;;17.62;98.25;100440.56;10458526;28;20439;-75
2022/07/13 01:38:12;;;;;;;5.10;3.05;;;;;;;17.62;98.04;100434.22;10482817;28;20680;-75
2022/07/13 01:43:16;;;;;;;4.22;2.80;;;;;;;17.61;98.91;100440.91;10466807;28;20064;-75
2022/07/13 01:48:18;;;;;;;5.90;3.30;;;;;;;17.59;98.96;100446.78;10451069;28;20042;-75
2022/07/13 01:53:21;;;;;;;4.35;3.10;;;;;;;17.59;98.76;100445.97;10482916;28;20044;-74
2022/07/13 01:58:23;;;;;;;3.80;2.45;;;;;;;17.58;98.92;100450.72;10457268;28;20041;-75
2022/07/13 02:03:29;;;;;;;5.35;3.38;;;;;;;17.72;98.58;100451.34;10449514;28;20115;-74
2022/07/13 02:08:32;;;;;;;3.83;2.97;;;;;;;17.89;98.75;100455.19;10477903;28;20041;-74
2022/07/13 02:13:36;;;;;;;3.60;2.53;;;;;;;18.10;99.21;100466.31;10444218;28;20415;-74
2022/07/13 02:18:38;;;;;;;4.80;2.63;;;;;;;18.25;97.72;100469.34;10428273;28;20042;-75
2022/07/13 02:23:40;;;;;;;3.20;2.40;;;;;;;18.44;96.66;100454.16;10467660;28;20049;-75
2022/07/13 02:28:42;;;;;;;4.53;2.58;;;;;;;18.68;96.40;100448.75;10479581;28;20052;-76
2022/07/13 02:33:46;;;;;;;3.83;2.67;;;;;;;18.92;94.16;100459.19;10456584;28;20045;-75
2022/07/13 02:38:48;;;;;;;7.55;3.13;;;;;;;19.13;92.09;100461.94;10445751;28;20542;-75
2022/07/13 02:43:53;;;;;;;3.47;2.13;;;;;;;19.33;90.54;100472.19;10452317;28;20048;-76
2022/07/13 02:48:55;;;;;;;3.88;2.42;;;;;;;19.58;89.39;100462.72;10486803;28;20421;-76
2022/07/13 02:53:58;;;;;;;5.78;2.85;;;;;;;19.87;88.05;100466.47;10417905;28;20040;-76
2022/07/13 02:59:01;;;;;;;5.22;2.78;;;;;;;20.21;85.44;100472.72;10475064;28;20507;-76
2022/07/13 03:04:04;;;;;;;3.67;2.35;;;;;;;20.44;83.50;100479.44;10458368;28;20055;-76
2022/07/13 03:09:07;;;;;;;4.88;2.65;;;;;;;20.77;82.87;100485.63;10474005;28;20055;-76
2022/07/13 03:14:09;;;;;;;4.88;2.42;;;;;;;20.91;80.59;100501.16;10456127;28;20049;-76
2022/07/13 03:19:12;;;;;;;3.92;2.38;;;;;;;21.19;78.21;100499.22;10447745;28;20033;-76
2022/07/13 03:24:16;;;;;;;6.75;2.78;;;;;;;21.45;76.55;100501.53;10436054;28;20045;-76
2022/07/13 03:29:19;;;;;;;3.30;2.30;;;;;;;21.61;74.92;100505.16;10461760;28;20041;-76
2022/07/13 03:34:22;;;;;;;3.92;3.05;;;;;;;21.81;74.37;100502.44;10443138;28;20041;-76
2022/07/13 03:39:25;;;;;;;3.33;2.20;;;;;;;22.15;72.11;100500.94;10460890;28;20053;-76
2022/07/13 03:44:28;;;;;;;3.17;2.25;;;;;;;22.37;70.10;100500.25;10469857;28;20049;-76
2022/07/13 03:49:31;;;;;;;4.90;2.15;;;;;;;22.48;69.61;100511.69;10473796;28;20057;-75
2022/07/13 03:54:33;;;;;;;2.33;1.95;;;;;;;22.90;66.61;100517.44;10455405;28;20046;-75
2022/07/13 03:59:36;;;;;;;3.08;2.35;;;;;;;23.20;64.39;100517.66;10462662;28;20499;-75
2022/07/13 04:04:39;;;;;;;4.68;2.72;;;;;;;23.54;63.83;100507.53;10465880;28;20041;-75
2022/07/13 04:09:41;;;;;;;3.83;2.58;;;;;;;23.59;61.53;100520.44;10440981;28;20146;-74
2022/07/13 04:14:45;;;;;;;4.07;1.90;;;;;;;23.69;61.65;100523.44;10459412;28;20040;-75
2022/07/13 04:19:48;;;;;;;3.28;1.80;;;;;;;24.14;60.90;100521.81;10472581;28;20044;-73
2022/07/13 04:24:51;;;;;;;1.90;1.65;;;;;;;24.52;57.68;100522.81;10435506;28;20413;-73
2022/07/13 04:29:58;;;;;;;2.03;1.45;;;;;;;24.60;57.73;100528.13;10449954;28;20057;-73
2022/07/13 04:35:01;;;;;;;1.50;1.40;;;;;;;24.85;56.91;100528.50;10448221;28;20053;-73
2022/07/13 04:40:06;;;;;;;1.75;1.65;;;;;;;25.33;55.56;100531.50;10463281;28;20041;-73
2022/07/13 04:45:10;;;;;;;3.58;1.92;;;;;;;25.62;53.99;100534.63;10467213;28;20056;-73
2022/07/13 04:50:14;;;;;;;6.60;1.77;;;;;;;25.66;52.85;100535.47;10449343;28;20136;-73
2022/07/13 04:55:17;;;;;;;1.58;1.48;;;;;;;25.75;52.62;100536.00;10461058;28;20053;-73
2022/07/13 05:00:20;;;;;;;2.75;1.60;;;;;;;25.72;52.99;100534.78;10430365;28;20049;-73
2022/07/13 05:05:22;;;;;;;2.25;1.60;;;;;;;26.00;52.19;100536.22;10438298;28;20492;-73
2022/07/13 05:10:25;;;;;;;2.40;1.65;;;;;;;26.25;52.00;100530.81;10466624;28;20044;-73
2022/07/13 05:15:29;;;;;;;2.33;2.05;;;;;;;26.47;50.58;100529.00;10430209;28;20053;-73
2022/07/13 05:20:31;;;;;;;2.40;1.85;;;;;;;26.78;49.71;100524.75;10419394;28;20412;-73
2022/07/13 05:25:34;;;;;;;3.70;1.58;;;;;;;26.96;49.33;100531.28;10471210;28;20037;-73
2022/07/13 05:30:37;;;;;;;2.10;1.50;;;;;;;27.33;48.77;100525.41;10435180;28;20056;-73
2022/07/13 05:35:40;;;;;;;3.63;1.73;;;;;;;27.65;47.71;100530.38;10474331;28;20049;-73
2022/07/13 05:40:43;;;;;;;2.38;2.00;;;;;;;28.04;47.37;100528.38;10478913;28;20033;-73
2022/07/13 05:45:45;;;;;;;3.55;2.30;;;;;;;28.42;46.38;100532.41;10463302;28;20431;-73
2022/07/13 05:50:51;;;;;;;1.75;1.42;;;;;;;28.62;45.91;100532.78;10452576;28;20048;-72
2022/07/13 05:55:55;;;;;;;1.83;1.43;;;;;;;28.79;44.82;100533.94;10450165;28;20037;-73
2022/07/13 06:00:57;;;;;;;1.48;1.23;;;;;;;28.64;44.19;100533.19;10458094;28;20053;-73
2022/07/13 06:06:01;;;;;;;1.70;1.60;;;;;;;28.94;43.17;100526.25;10485678;28;20547;-73
2022/07/13 06:11:03;;;;;;;1.50;1.38;;;;;;;29.24;42.72;100525.72;10452661;28;20542;-73
2022/07/13 06:16:06;;;;;;;1.60;1.50;;;;;;;29.54;42.59;100523.19;10460618;28;20037;-73
2022/07/13 06:21:08;;;;;;;1.90;1.70;;;;;;;29.76;41.44;100518.19;10473066;28;20435;-73
2022/07/13 06:26:10;;;;;;;5.30;2.03;;;;;;;29.41;41.79;100519.97;10482462;28;20045;-73
2022/07/13 06:31:13;;;;;;;6.88;2.03;;;;;;;28.61;42.66;100521.88;10481840;28;20051;-73
2022/07/13 06:36:16;;;;;;;3.72;1.90;;;;;;;28.70;43.60;100522.28;10483730;28;20053;-73
2022/07/13 06:41:18;;;;;;;5.55;2.35;;;;;;;28.82;42.64;100524.69;10484284;28;20037;-73
2022/07/13 06:46:21;;;;;;;4.30;2.20;;;;;;;28.87;42.27;100529.94;10468921;28;20048;-73
2022/07/13 06:51:24;;;;;;;4.22;2.38;;;;;;;29.33;41.89;100523.25;10472962;28;20061;-73
2022/07/13 06:56:26;;;;;;;2.80;2.47;;;;;;;29.61;42.14;100525.16;10473481;28;20037;-73
2022/07/13 07:01:29;;;;;;;4.43;2.58;;;;;;;29.78;42.00;100529.88;10481540;28;20480;-73
2022/07/13 07:06:31;;;;;;;2.40;1.90;;;;;;;29.25;40.05;100530.97;10479575;28;20647;-73
2022/07/13 07:11:34;;;;;;;2.10;1.88;;;;;;;29.23;41.41;100539.06;10462632;28;20475;-73
2022/07/13 07:16:37;;;;;;;5.47;2.05;;;;;;;29.53;40.71;100532.88;10480469;28;21616;-73
2022/07/13 07:21:40;;;;;;;6.68;2.33;;;;;;;29.48;40.11;100529.66;10471401;28;20040;-73
2022/07/13 07:26:42;;;;;;;3.20;1.90;;;;;;;29.07;41.18;100531.06;10484520;28;20029;-73
2022/07/13 07:31:44;;;;;;;1.90;1.50;;;;;;;28.87;41.04;100535.56;10465231;28;20048;-73
2022/07/13 07:36:47;;;;;;;3.13;1.83;;;;;;;28.72;41.64;100536.78;10456376;28;20053;-73
2022/07/13 07:41:50;;;;;;;3.08;2.28;;;;;;;29.03;41.41;100541.56;10480646;28;20048;-73
2022/07/13 07:46:52;;;;;;;4.78;2.50;;;;;;;28.66;41.64;100544.09;10472344;28;20536;-73
2022/07/13 07:51:54;;;;;;;3.15;1.75;;;;;;;28.76;40.82;100552.50;10457986;28;20049;-73
2022/07/13 07:56:58;;;;;;;2.38;1.70;;;;;;;28.91;39.66;100542.00;10462126;28;20040;-73
2022/07/13 08:02:01;;;;;;;3.08;1.60;;;;;;;29.00;39.74;100550.88;10469984;28;20045;-73
2022/07/13 08:07:04;;;;;;;4.00;1.92;;;;;;;29.42;39.59;100543.41;10452966;28;20037;-73
2022/07/13 08:12:06;;;;;;;4.47;1.70;;;;;;;29.30;38.72;100544.66;10467475;28;20049;-73
2022/07/13 08:17:08;;;;;;;2.70;1.35;;;;;;;29.07;38.67;100550.84;10471056;28;20056;-74
2022/07/13 08:22:11;;;;;;;2.65;1.80;;;;;;;28.41;39.93;100542.09;10481821;28;20052;-73
2022/07/13 08:27:13;;;;;;;1.60;1.50;;;;;;;27.77;41.15;100541.25;10448383;28;20060;-73
2022/07/13 08:32:15;;;;;;;4.47;1.52;;;;;;;27.77;41.33;100539.25;10482481;28;20063;-74
2022/07/13 08:42:45;;;;;;;2.40;1.55;;;;;;;27.59;42.10;100549.63;10465779;28;20674;-74
2022/07/13 08:47:48;;;;;;;1.55;1.45;;;;;;;28.08;41.13;100553.75;10466823;28;20057;-74
2022/07/13 08:52:50;;;;;;;2.75;1.40;;;;;;;28.41;39.77;100547.72;10489329;28;20063;-73
2022/07/13 08:57:53;;;;;;;4.00;1.70;;;;;;;28.14;39.79;100546.53;10490595;28;20048;-73
2022/07/13 09:02:55;;;;;;;2.55;1.60;;;;;;;28.06;40.41;100542.88;10470138;28;20507;-73
2022/07/13 09:08:05;;;;;;;1.88;1.70;;;;;;;28.03;40.16;100546.50;10489474;28;20037;-73
2022/07/13 09:13:08;;;;;;;1.58;1.48;;;;;;;27.70;40.07;100530.78;10484701;28;20048;-73
2022/07/13 09:18:18;;;;;;;1.77;1.52;;;;;;;27.21;40.76;100531.41;10485552;28;20044;-73
2022/07/13 09:23:29;;;;;;;2.13;1.60;;;;;;;27.09;41.79;100523.34;10451756;28;20037;-73
2022/07/13 09:28:45;;;;;;;1.80;1.40;;;;;;;26.95;40.96;100532.50;10483998;28;20510;-73
2022/07/13 09:33:47;;;;;;;1.57;1.47;;;;;;;26.78;41.96;100534.00;10477905;28;20059;-72
2022/07/13 09:38:53;;;;;;;2.72;1.25;;;;;;;26.33;41.18;100532.47;10488683;28;20049;-73
2022/07/13 09:49:45;;;;;;;1.33;1.23;;;;;;;25.19;42.72;100534.19;10485101;28;20063;-73
2022/07/13 09:54:51;;;;;;;0.98;0.95;;;;;;;25.17;42.76;100522.53;10480960;28;20044;-73
2022/07/13 09:59:53;;;;;;;2.20;1.08;;;;;;;25.14;41.56;100526.06;10471403;28;20041;-72
2022/07/13 10:04:57;;;;;;;3.65;1.02;;;;;;;25.12;41.71;100531.25;10478579;28;20049;-72
2022/07/13 10:10:01;;;;;;;1.48;0.90;;;;;;;25.06;39.72;100533.59;10476160;28;20056;-72
2022/07/13 10:15:05;;;;;;;1.08;0.60;;;;;;;24.93;39.46;100533.00;10443016;28;20444;-72
2022/07/13 10:20:16;;;;;;;0.75;0.75;;;;;;;24.61;40.81;100524.16;10480570;28;20041;-72
2022/07/13 10:25:19;;;;;;;1.20;1.10;;;;;;;24.55;41.67;100530.47;10482334;28;20028;-73
2022/07/13 10:30:24;;;;;;;1.38;0.90;;;;;;;24.56;40.88;100527.28;10470765;28;20049;-74
2022/07/13 10:35:46;;;;;;;2.58;1.15;;;;;;;24.62;42.11;100519.34;10471635;28;20048;-74
2022/07/13 10:40:49;;;;;;;1.50;1.10;;;;;;;24.79;42.37;100515.97;10455094;28;20548;-75
2022/07/13 10:45:52;;;;;;;1.67;0.98;;;;;;;24.69;42.49;100527.88;10483122;28;20048;-78
2022/07/13 10:50:57;;;;;;;1.23;1.10;;;;;;;24.62;42.47;100503.31;10449932;28;20055;-79
2022/07/13 10:55:59;;;;;;;6.25;1.63;;;;;;;24.63;43.20;100509.72;10484809;28;20461;-78
2022/07/13 11:01:24;;;;;;;2.38;1.10;;;;;;;24.51;41.57;100524.00;10476792;28;20048;-78
2022/07/13 11:06:29;;;;;;;2.28;0.90;;;;;;;24.44;42.08;100507.84;10468139;28;20042;-77
2022/07/13 11:11:32;;;;;;;2.15;1.15;;;;;;;24.42;42.26;100507.44;10475975;28;20470;-77
2022/07/13 11:16:54;;;;;;;1.40;1.20;;;;;;;24.42;41.05;100501.00;10453228;28;20044;-76
2022/07/13 11:22:06;;;;;;;3.33;1.13;;;;;;;24.42;40.78;100498.22;10468562;28;20067;-76
2022/07/13 11:27:15;;;;;;;1.38;1.02;;;;;;;24.37;41.35;100490.94;10486709;28;20048;-77
2022/07/13 11:32:22;;;;;;;2.05;1.05;;;;;;;24.34;41.24;100489.72;10447857;28;20045;-80
2022/07/13 11:37:25;;;;;;;2.47;1.90;;;;;;;24.47;42.41;100486.66;10478286;28;20037;-78
2022/07/13 11:42:28;;;;;;;1.85;1.50;;;;;;;24.54;42.56;100484.78;10467616;28;20037;-78
2022/07/13 11:47:31;;;;;;;2.25;1.50;;;;;;;24.61;42.06;100490.47;10473494;28;20037;-83
2022/07/13 11:52:33;;;;;;;1.58;1.20;;;;;;;24.59;41.67;100487.25;10469997;28;20045;-80
2022/07/13 11:57:37;;;;;;;1.27;1.00;;;;;;;24.58;40.28;100476.41;10457833;28;20053;-81
2022/07/13 12:02:39;;;;;;;1.33;0.90;;;;;;;24.45;40.91;100472.22;10428669;28;20416;-83
2022/07/13 12:07:42;;;;;;;2.63;1.40;;;;;;;24.45;40.67;100475.00;10425208;28;20045;-81
2022/07/13 12:12:45;;;;;;;1.13;1.02;;;;;;;24.39;40.55;100465.31;10446616;28;20056;-78
2022/07/13 12:17:53;;;;;;;1.75;0.93;;;;;;;24.29;40.48;100456.34;10462028;28;20041;-84
2022/07/13 12:22:57;;;;;;;1.20;1.10;;;;;;;24.42;41.53;100454.13;10481988;28;20072;-75
2022/07/13 12:28:00;;;;;;;1.00;0.90;;;;;;;24.54;40.80;100447.50;10478377;28;20037;-93
2022/07/13 12:33:10;;;;;;;2.70;1.20;;;;;;;24.66;40.94;100438.84;10453653;28;20053;-91
2022/07/13 12:38:14;;;;;;;1.05;1.05;;;;;;;24.67;40.68;100436.84;10423156;28;20041;-87
2022/07/13 12:43:19;;;;;;;2.35;1.23;;;;;;;24.72;40.35;100434.50;10458472;28;20053;-81
2022/07/13 12:48:24;;;;;;;1.98;1.77;;;;;;;24.60;39.44;100423.53;10462880;28;20041;-82
2022/07/13 12:53:53;;;;;;;1.00;1.00;;;;;;;24.49;39.49;100425.41;10439513;28;20041;-83
2022/07/13 12:58:58;;;;;;;2.35;0.98;;;;;;;24.43;40.88;100404.47;10441140;28;20041;-80
2022/07/13 13:04:02;;;;;;;1.83;1.35;;;;;;;24.47;40.56;100399.69;10443719;28;20045;-91
2022/07/13 13:09:12;;;;;;;2.83;1.27;;;;;;;24.54;40.19;100394.19;10468932;28;20049;-87
2022/07/13 13:14:16;;;;;;;2.83;1.83;;;;;;;24.59;40.15;100385.44;10445481;28;20045;-79
2022/07/13 13:19:19;;;;;;;2.13;1.63;;;;;;;24.49;40.02;100384.13;10462673;28;20040;-80
2022/07/13 13:24:21;;;;;;;2.70;1.55;;;;;;;24.53;41.15;100381.38;10482940;28;20159;-80
2022/07/13 13:34:45;;;;;;;1.58;1.02;;;;;;;24.67;41.44;100375.94;10466389;28;20025;-80
2022/07/13 13:39:47;;;;;;;1.35;1.25;;;;;;;24.71;40.34;100375.97;10483794;28;20049;-83
2022/07/13 13:44:49;;;;;;;1.08;1.02;;;;;;;24.76;40.33;100368.00;10473039;28;20539;-83
2022/07/13 13:49:52;;;;;;;3.00;1.50;;;;;;;24.80;40.61;100363.22;10487838;28;20048;-81
2022/07/13 13:54:54;;;;;;;1.38;1.23;;;;;;;24.85;41.29;100356.47;10475103;28;20448;-83
2022/07/13 13:59:56;;;;;;;1.50;1.40;;;;;;;24.85;40.72;100357.28;10474402;28;20061;-82
2022/07/13 14:05:00;;;;;;;1.38;1.27;;;;;;;24.85;40.10;100357.28;10478207;28;20046;-84
2022/07/13 14:10:04;;;;;;;1.25;1.15;;;;;;;24.80;40.75;100346.38;10478055;28;20059;-87
2022/07/13 14:15:08;;;;;;;3.50;1.45;;;;;;;24.79;40.52;100346.78;10474312;28;20051;-80
2022/07/13 14:20:10;;;;;;;4.25;1.20;;;;;;;24.77;40.03;100352.78;10459978;28;20029;-83
2022/07/13 14:25:13;;;;;;;1.30;1.10;;;;;;;24.79;40.59;100341.16;10470886;28;20514;-82
2022/07/13 14:30:16;;;;;;;4.95;1.08;;;;;;;24.79;40.03;100339.16;10458971;28;20076;-82
2022/07/13 14:35:18;;;;;;;1.90;1.45;;;;;;;24.75;39.99;100341.13;10468723;28;20056;-81
2022/07/13 14:40:20;;;;;;;1.50;1.30;;;;;;;24.59;39.79;100346.16;10465034;28;20040;-77
2022/07/13 14:45:23;;;;;;;1.20;1.10;;;;;;;24.61;40.51;100338.16;10450290;28;20053;-76
2022/07/13 14:50:25;;;;;;;2.03;0.95;;;;;;;24.59;39.64;100335.75;10454232;28;20455;-77
2022/07/13 14:55:28;;;;;;;1.42;1.33;;;;;;;24.57;39.60;100331.72;10439949;28;20045;-78
2022/07/13 15:00:30;;;;;;;0.95;0.93;;;;;;;24.57;39.97;100331.72;10481503;28;20060;-79
2022/07/13 15:05:33;;;;;;;2.20;1.50;;;;;;;24.51;39.77;100322.84;10461828;28;20404;-79
2022/07/13 15:10:35;;;;;;;2.05;1.02;;;;;;;24.44;39.76;100317.13;10441508;28;20419;-76
2022/07/13 15:15:38;;;;;;;1.90;1.30;;;;;;;24.41;39.66;100311.47;10475489;28;20033;-76
2022/07/13 15:20:41;;;;;;;1.23;1.00;;;;;;;24.31;39.49;100313.00;10472164;28;20041;-76
2022/07/13 15:25:44;;;;;;;1.00;1.00;;;;;;;24.28;39.11;100308.09;10416709;28;20416;-85
2022/07/13 15:30:46;;;;;;;0.93;0.93;;;;;;;24.25;39.41;100308.84;10438803;28;20046;-77
2022/07/13 15:35:48;;;;;;;1.52;1.10;;;;;;;24.27;40.29;100321.31;10464956;28;20518;-81
2022/07/13 15:46:12;;;;;;;1.20;1.10;;;;;;;24.23;39.90;100309.25;10484730;28;20051;-78
2022/07/13 15:51:14;;;;;;;1.42;1.33;;;;;;;24.21;39.96;100313.63;10487533;28;20053;-79
2022/07/13 15:56:16;;;;;;;1.67;1.00;;;;;;;24.20;39.65;100310.00;10451508;28;20131;-80
2022/07/13 16:01:18;;;;;;;3.45;0.98;;;;;;;24.18;38.26;100308.78;10485495;28;20064;-80
2022/07/13 16:06:21;;;;;;;1.25;1.15;;;;;;;24.15;38.84;100301.94;10486759;28;20641;-80
2022/07/13 16:11:25;;;;;;;1.92;1.02;;;;;;;24.16;39.51;100297.94;10485956;28;20036;-80
2022/07/13 16:16:28;;;;;;;3.08;1.20;;;;;;;24.15;39.38;100303.94;10485270;28;20060;-80
2022/07/13 16:21:30;;;;;;;2.30;1.00;;;;;;;24.09;38.92;100295.03;10482759;28;20041;-80
2022/07/13 16:26:32;;;;;;;2.25;1.75;;;;;;;24.10;39.36;100298.66;10468701;28;20499;-80
2022/07/13 16:31:35;;;;;;;1.48;1.00;;;;;;;24.03;39.84;100296.56;10486063;28;20048;-80
2022/07/13 16:36:37;;;;;;;1.58;1.20;;;;;;;24.04;39.21;100293.38;10485481;28;20053;-80
2022/07/13 16:41:39;;;;;;;1.10;1.00;;;;;;;24.02;39.18;100292.16;10485866;28;20056;-80
2022/07/13 16:46:43;;;;;;;1.55;1.30;;;;;;;23.97;39.50;100286.88;10457399;28;20508;-80
2022/07/13 16:51:46;;;;;;;1.33;1.23;;;;;;;23.93;39.01;100288.81;10443725;28;20045;-80
2022/07/13 16:56:52;;;;;;;1.33;1.20;;;;;;;23.94;39.27;100287.63;10444149;28;20046;-80
2022/07/13 17:01:54;;;;;;;2.10;1.35;;;;;;;23.88;38.98;100284.34;10449293;28;20524;-80
2022/07/13 17:06:58;;;;;;;2.00;1.33;;;;;;;23.85;39.33;100285.13;10436175;28;20622;-80
2022/07/13 17:12:01;;;;;;;2.28;1.10;;;;;;;23.80;40.29;100274.25;10485038;28;20060;-80
2022/07/13 17:17:04;;;;;;;3.20;1.45;;;;;;;23.77;40.70;100278.59;10478097;28;20037;-80
2022/07/13 17:22:07;;;;;;;2.20;1.50;;;;;;;23.74;40.36;100268.16;10441768;28;20048;-80
2022/07/13 17:27:11;;;;;;;1.75;1.20;;;;;;;23.69;40.72;100268.50;10494034;28;20048;-80
2022/07/13 17:32:13;;;;;;;2.33;1.38;;;;;;;23.67;40.87;100268.06;10474591;28;20037;-80
2022/07/13 17:37:15;;;;;;;1.40;1.17;;;;;;;23.67;40.95;100264.47;10487645;28;20032;-78
2022/07/13 17:42:18;;;;;;;2.58;1.40;;;;;;;23.63;40.37;100256.00;10486353;28;20048;-78
2022/07/13 17:47:20;;;;;;;1.98;1.23;;;;;;;23.60;40.77;100255.94;10482475;28;20048;-78
2022/07/13 17:52:23;;;;;;;2.15;1.17;;;;;;;23.53;40.71;100248.22;10490044;28;20037;-77
2022/07/13 17:57:31;;;;;;;2.28;1.33;;;;;;;23.49;40.92;100244.56;10487058;28;20411;-77
2022/07/13 18:02:35;;;;;;;1.25;1.13;;;;;;;23.46;41.31;100242.53;10466159;28;20053;-77
2022/07/13 18:07:37;;;;;;;1.58;1.38;;;;;;;23.41;42.36;100246.44;10469599;28;20040;-78
2022/07/13 18:12:40;;;;;;;2.13;1.90;;;;;;;23.36;42.12;100245.97;10489591;28;20049;-79
2022/07/13 18:17:43;;;;;;;1.80;1.65;;;;;;;23.32;42.79;100239.50;10466443;28;20411;-78
2022/07/13 18:22:46;;;;;;;1.83;1.60;;;;;;;23.24;42.17;100235.78;10490195;28;20041;-78
2022/07/13 18:27:48;;;;;;;2.47;1.50;;;;;;;23.21;43.27;100238.53;10470281;28;20048;-76
2022/07/13 18:32:51;;;;;;;1.75;1.17;;;;;;;23.14;43.18;100245.63;10491050;28;20057;-77
2022/07/13 18:37:53;;;;;;;2.70;1.30;;;;;;;23.08;43.28;100240.72;10490906;28;20518;-79
2022/07/13 18:42:55;;;;;;;2.13;1.50;;;;;;;23.02;43.49;100236.63;10477986;28;20037;-80
2022/07/13 18:47:58;;;;;;;1.95;1.58;;;;;;;22.97;43.58;100237.75;10463918;28;20451;-79
2022/07/13 18:53:01;;;;;;;1.55;1.40;;;;;;;22.89;43.47;100236.00;10430025;28;20037;-79
2022/07/13 18:58:04;;;;;;;1.58;1.40;;;;;;;22.81;44.18;100226.69;10462880;28;20433;-77
2022/07/13 19:03:06;;;;;;;1.55;1.40;;;;;;;22.74;43.99;100228.56;10466864;28;20044;-78
2022/07/13 19:08:08;;;;;;;1.40;1.25;;;;;;;22.64;45.00;100235.56;10474237;28;20408;-76
2022/07/13 19:13:11;;;;;;;3.30;1.80;;;;;;;22.54;45.10;100231.38;10486668;28;20060;-77
2022/07/13 19:18:14;;;;;;;2.03;1.30;;;;;;;22.45;45.41;100236.44;10479477;28;20047;-77
2022/07/13 19:23:16;;;;;;;3.22;1.85;;;;;;;22.42;45.32;100231.59;10487858;28;20506;-76
2022/07/13 19:28:19;;;;;;;3.00;1.70;;;;;;;22.35;46.16;100225.03;10486697;28;20076;-79
2022/07/13 19:33:21;;;;;;;4.20;1.48;;;;;;;22.28;46.38;100228.50;10469978;28;20045;-74
2022/07/13 19:38:23;;;;;;;4.30;1.83;;;;;;;22.20;45.74;100229.53;10453343;28;20053;-74
2022/07/13 19:43:25;;;;;;;2.38;1.50;;;;;;;22.14;46.44;100226.25;10483678;28;20058;-74
2022/07/13 19:48:28;;;;;;;5.55;1.58;;;;;;;22.10;46.84;100216.19;10487179;28;20045;-74
2022/07/13 19:53:30;;;;;;;2.65;1.63;;;;;;;22.04;47.43;100214.81;10448763;28;22313;-74
2022/07/13 19:58:34;;;;;;;1.95;1.73;;;;;;;21.97;47.02;100205.13;10456895;28;20091;-79
2022/07/13 20:03:50;;;;;;;1.70;1.52;;;;;;;21.90;47.47;100216.16;10467644;28;20522;-75
2022/07/13 20:08:53;;;;;;;2.33;1.77;;;;;;;21.85;47.68;100208.06;10456398;28;20083;-74
2022/07/13 20:13:56;;;;;;;3.00;1.60;;;;;;;21.81;48.21;100206.38;10470470;28;20068;-72
2022/07/13 20:18:58;;;;;;;4.05;1.65;;;;;;;21.76;48.31;100199.09;10476429;28;20044;-73
2022/07/13 20:24:00;;;;;;;2.70;1.85;;;;;;;21.70;48.63;100199.78;10450109;28;20069;-74
2022/07/13 20:29:03;;;;;;;4.80;1.83;;;;;;;21.65;48.32;100181.31;10462471;28;20432;-74
2022/07/13 20:34:05;;;;;;;2.05;1.40;;;;;;;21.58;48.80;100189.53;10475469;28;20052;-75
2022/07/13 20:39:07;;;;;;;2.88;2.55;;;;;;;21.54;49.45;100186.69;10465977;28;20041;-74
2022/07/13 20:44:10;;;;;;;4.53;1.88;;;;;;;21.47;49.25;100174.53;10473210;28;20071;-75
2022/07/13 20:49:13;;;;;;;2.65;1.92;;;;;;;21.43;49.49;100173.66;10476680;28;20057;-74
2022/07/13 20:54:15;;;;;;;2.53;1.85;;;;;;;21.39;49.54;100165.22;10457240;28;20447;-75
2022/07/13 20:59:18;;;;;;;3.33;2.22;;;;;;;21.34;49.48;100171.88;10459712;28;20056;-75
2022/07/13 21:04:20;;;;;;;2.30;2.20;;;;;;;21.28;49.71;100164.97;10483547;28;20053;-75
2022/07/13 21:09:23;;;;;;;2.80;1.98;;;;;;;21.24;50.11;100160.44;10461099;28;20423;-78
2022/07/13 21:14:25;;;;;;;2.40;2.20;;;;;;;21.20;50.84;100160.38;10479394;28;20040;-76
2022/07/13 21:19:28;;;;;;;3.50;2.20;;;;;;;21.14;50.87;100155.44;10481718;28;20037;-77
2022/07/13 21:24:30;;;;;;;3.13;1.98;;;;;;;21.10;50.37;100154.53;10483033;28;20041;-78
2022/07/13 21:29:35;;;;;;;6.63;3.65;;;;;;;21.05;50.75;100152.84;10475244;28;20036;-80
2022/07/13 21:34:38;;;;;;;2.15;1.60;;;;;;;21.01;50.66;100146.41;10452327;28;20045;-83
2022/07/13 21:39:40;;;;;;;3.45;2.47;;;;;;;20.96;50.48;100149.44;10466965;28;20455;-79
2022/07/13 21:44:42;;;;;;;4.18;2.10;;;;;;;20.91;50.94;100147.75;10465566;28;20052;-74
2022/07/13 21:49:44;;;;;;;3.10;1.90;;;;;;;20.86;51.32;100144.44;10485040;28;20040;-75
2022/07/13 21:54:47;;;;;;;6.70;2.80;;;;;;;20.80;51.74;100132.72;10481199;28;20049;-75
2022/07/13 21:59:49;;;;;;;3.75;2.28;;;;;;;20.75;51.35;100138.59;10465961;28;20040;-78
2022/07/13 22:05:13;;;;;;;2.50;1.70;;;;;;;20.68;52.26;100132.84;10468689;28;20061;-76
2022/07/13 22:10:52;;;;;;;2.50;1.80;;;;;;;20.61;52.35;100133.47;10483267;28;20073;-76
2022/07/13 22:16:32;;;;;;;5.00;1.80;;;;;;;20.55;52.51;100123.78;10483149;28;20053;-75
2022/07/13 22:22:18;;;;;;;4.15;1.90;;;;;;;20.49;52.79;100119.66;10481849;28;20033;-75
2022/07/13 22:27:58;;;;;;;2.92;1.90;;;;;;;20.42;53.26;100114.69;10482684;28;20041;-76
2022/07/13 22:33:37;;;;;;;3.47;2.28;;;;;;;20.37;53.14;100114.13;10486464;28;20049;-75
2022/07/13 22:39:17;;;;;;;2.28;2.08;;;;;;;20.32;53.50;100115.22;10453203;28;20535;-74
2022/07/13 22:44:56;;;;;;;3.33;2.03;;;;;;;20.27;53.71;100109.09;10476036;28;20437;-73
2022/07/13 22:50:36;;;;;;;5.90;2.40;;;;;;;20.22;54.30;100101.00;10483224;28;20052;-75
2022/07/13 22:56:16;;;;;;;3.00;2.30;;;;;;;20.16;54.54;100101.28;10438266;28;20049;-77
2022/07/13 23:01:56;;;;;;;5.13;2.20;;;;;;;20.09;54.44;100101.09;10457884;28;20048;-78
2022/07/13 23:07:36;;;;;;;9.50;2.65;;;;;;;20.07;54.95;100097.84;10455752;28;20045;-75
2022/07/13 23:13:16;;;;;;;3.35;2.00;;;;;;;20.02;55.33;100095.34;10448983;28;20041;-75
2022/07/13 23:18:55;;;;;;;3.42;2.22;;;;;;;19.97;55.63;100092.03;10478348;28;20047;-75
2022/07/13 23:24:35;;;;;;;6.13;2.70;;;;;;;19.95;55.65;100085.97;10475128;28;20586;-75
2022/07/13 23:29:37;;;;;;;3.55;2.33;;;;;;;19.90;55.77;100081.47;10483846;28;20037;-75
2022/07/13 23:34:40;;;;;;;4.28;2.38;;;;;;;19.86;56.18;100078.59;10483353;28;20048;-75
2022/07/13 23:39:43;;;;;;;4.68;2.60;;;;;;;19.82;56.18;100079.69;10452822;28;20036;-79
2022/07/13 23:44:45;;;;;;;5.90;2.45;;;;;;;19.75;56.15;100079.47;10452344;28;20045;-78